Time;durP1;ratioP1;P1;durP2;ratioP2;P2;SDS_P1;SDS_P2;PMS_P1;PMS_P2;Temp;Humidity;BMP_temperature;BMP_pressure;BME280_temperature;BME280_humidity;BME280_pressure;Samples;Min_cycle;Max_cycle;Signal;HPM_P1;HPM_P2
2021/04/12 05:32:06;;;;;;;9.15;5.95;;;;;;;12.36;54.87;100349.94;1752045;77;27402;-61
2021/04/12 05:35:08;;;;;;;9.03;5.42;;;;;;;12.44;54.74;100352.39;1751776;80;25536;-64
2021/04/12 05:38:12;;;;;;;10.60;6.05;;;;;;;12.49;54.66;100353.02;1749515;81;25421;-64
2021/04/12 05:41:05;;;;;;;10.35;5.83;;;;;;;12.49;54.36;100354.94;1749551;81;26222;-65
2021/04/12 05:43:59;;;;;;;11.57;6.00;;;;;;;12.49;54.38;100353.58;1750085;81;25559;-64
2021/04/12 05:46:55;;;;;;;10.05;5.33;;;;;;;12.48;54.26;100354.69;1750067;81;25772;-64
2021/04/12 05:49:43;;;;;;;14.28;5.50;;;;;;;12.51;54.18;100347.27;1701581;84;25650;-64
2021/04/12 05:52:36;;;;;;;11.70;5.95;;;;;;;12.59;54.14;100353.83;1889114;76;34533;-64
2021/04/12 05:55:40;;;;;;;13.70;5.55;;;;;;;12.54;54.11;100345.84;1859811;77;25490;-65
2021/04/12 05:58:33;;;;;;;10.78;5.40;;;;;;;12.57;54.24;100350.07;1866176;76;27944;-64
2021/04/12 06:01:40;;;;;;;9.33;5.40;;;;;;;12.60;54.25;100343.19;1863832;76;25218;-64
2021/04/12 06:04:35;;;;;;;10.58;5.67;;;;;;;12.64;54.06;100349.59;1857587;77;25322;-64
2021/04/12 06:07:47;;;;;;;8.95;5.60;;;;;;;12.71;54.07;100349.32;1857530;77;25287;-63
2021/04/12 06:10:28;;;;;;;9.43;5.25;;;;;;;12.78;53.93;100351.55;1857614;77;25448;-64
2021/04/12 06:13:24;;;;;;;7.85;5.35;;;;;;;12.88;53.79;100354.49;1857597;77;26151;-64
2021/04/12 06:16:02;;;;;;;7.72;5.00;;;;;;;12.93;53.63;100353.53;1857473;77;25224;-64
2021/04/12 06:18:57;;;;;;;11.35;4.92;;;;;;;12.99;53.40;100348.15;1857610;77;25294;-63
2021/04/12 06:22:06;;;;;;;6.42;4.92;;;;;;;13.06;53.32;100352.55;1849028;75;25461;-64
2021/04/12 06:25:10;;;;;;;8.20;4.72;;;;;;;13.14;53.04;100347.62;1831988;77;25459;-64
2021/04/12 06:28:36;;;;;;;8.10;5.42;;;;;;;13.25;53.05;100343.44;1826278;78;25753;-64
2021/04/12 06:31:53;;;;;;;6.97;4.87;;;;;;;13.45;53.09;100341.16;1826116;78;25433;-64
2021/04/12 06:34:49;;;;;;;7.20;4.95;;;;;;;13.67;52.79;100337.92;1826315;78;25438;-64
2021/04/12 06:38:06;;;;;;;10.03;4.37;;;;;;;13.79;52.32;100338.81;1851341;77;25583;-63
2021/04/12 06:40:47;;;;;;;7.67;4.58;;;;;;;13.89;51.81;100338.97;1833538;75;25263;-64
2021/04/12 06:43:37;;;;;;;8.60;4.72;;;;;;;13.91;51.12;100336.75;1829868;77;28047;-64
2021/04/12 06:46:16;;;;;;;9.80;5.12;;;;;;;14.08;51.19;100342.63;1853643;76;25459;-62
2021/04/12 06:49:26;;;;;;;7.00;4.45;;;;;;;14.28;50.70;100337.50;1854700;77;25774;-63
2021/04/12 06:52:26;;;;;;;7.75;5.70;;;;;;;14.55;50.75;100333.43;1824885;76;25336;-63
2021/04/12 06:55:19;;;;;;;8.13;5.47;;;;;;;14.98;50.40;100336.30;1840537;76;25301;-64
2021/04/12 06:58:16;;;;;;;7.15;4.75;;;;;;;15.41;49.24;100345.91;1834609;78;28027;-64
2021/04/12 07:01:06;;;;;;;8.40;5.00;;;;;;;15.65;48.26;100347.83;1825811;78;25550;-64
2021/04/12 07:04:16;;;;;;;6.50;4.83;;;;;;;16.03;48.11;100344.51;1848645;76;25303;-63
2021/04/12 07:07:18;;;;;;;7.53;5.08;;;;;;;16.44;47.50;100341.98;1868310;76;25524;-64
2021/04/12 07:10:21;;;;;;;7.62;5.55;;;;;;;16.88;45.87;100333.62;1867017;76;25149;-64
2021/04/12 07:13:39;;;;;;;8.85;5.40;;;;;;;17.11;45.21;100338.73;1798196;79;25712;-63
2021/04/12 07:16:29;;;;;;;6.70;5.10;;;;;;;17.42;44.66;100343.97;1824428;78;25599;-63
2021/04/12 07:19:19;;;;;;;11.85;5.67;;;;;;;17.65;44.50;100345.46;1823817;78;25437;-64
2021/04/12 07:22:14;;;;;;;8.13;5.65;;;;;;;17.61;43.45;100334.24;1798200;79;25348;-65
2021/04/12 07:24:55;;;;;;;6.80;4.78;;;;;;;17.79;44.02;100338.16;1824522;78;25302;-64
2021/04/12 07:28:08;;;;;;;7.40;5.97;;;;;;;18.32;43.38;100336.95;1798219;79;25834;-63
2021/04/12 07:31:06;;;;;;;10.48;5.17;;;;;;;18.49;41.27;100351.59;1824418;78;25472;-63
2021/04/12 07:33:55;;;;;;;10.30;5.62;;;;;;;18.56;41.19;100339.41;1821905;78;25330;-63
2021/04/12 07:36:48;;;;;;;10.63;5.87;;;;;;;18.70;40.28;100340.25;1831067;78;25267;-61
2021/04/12 07:39:57;;;;;;;8.78;5.10;;;;;;;18.81;40.22;100345.92;1798169;79;25424;-62
2021/04/12 07:43:05;;;;;;;6.65;5.15;;;;;;;19.00;40.61;100331.41;1798012;79;25712;-64
2021/04/12 07:46:01;;;;;;;7.70;4.87;;;;;;;19.44;40.13;100335.66;1762600;81;25350;-63
2021/04/12 07:49:01;;;;;;;10.05;5.15;;;;;;;19.57;39.36;100332.92;1762731;81;25426;-62
2021/04/12 07:51:59;;;;;;;6.17;4.87;;;;;;;19.84;39.43;100337.07;1774884;79;25418;-63
2021/04/12 07:55:06;;;;;;;6.90;4.80;;;;;;;20.18;38.54;100331.05;1792291;78;25420;-64
2021/04/12 07:58:17;;;;;;;8.40;4.45;;;;;;;20.47;37.94;100328.05;1680682;85;26911;-64
2021/04/12 08:01:34;;;;;;;9.88;4.85;;;;;;;21.03;37.62;100330.41;1837162;76;25392;-63
2021/04/12 08:04:26;;;;;;;7.95;4.90;;;;;;;21.35;37.52;100323.02;1796564;78;25546;-64
2021/04/12 08:07:32;;;;;;;8.35;4.30;;;;;;;21.71;36.52;100319.15;1795422;78;25745;-64
2021/04/12 08:10:22;;;;;;;9.48;4.33;;;;;;;22.09;36.20;100310.09;1787480;80;25267;-64
2021/04/12 08:13:43;;;;;;;8.20;4.17;;;;;;;22.46;35.78;100322.04;1787396;80;25356;-63
2021/04/12 08:16:39;;;;;;;6.03;4.12;;;;;;;22.78;35.03;100311.08;1787293;80;25299;-64
2021/04/12 08:19:23;;;;;;;5.35;4.20;;;;;;;23.12;33.18;100316.27;1787377;80;25275;-63
2021/04/12 08:22:33;;;;;;;8.18;4.35;;;;;;;23.19;33.00;100318.23;1787410;80;25713;-64
2021/04/12 08:25:42;;;;;;;7.50;4.08;;;;;;;23.08;33.00;100314.11;1787265;80;25451;-64
2021/04/12 08:28:46;;;;;;;5.72;4.08;;;;;;;23.02;31.81;100316.45;1787511;80;25266;-64
2021/04/12 08:31:47;;;;;;;6.45;3.98;;;;;;;22.79;31.30;100310.52;1786637;80;25306;-63
2021/04/12 08:34:54;;;;;;;5.33;3.80;;;;;;;22.89;32.22;100307.76;1787304;80;25301;-61
2021/04/12 08:38:02;;;;;;;7.78;4.50;;;;;;;23.17;31.25;100306.21;1787321;80;25716;-64
2021/04/12 08:40:58;;;;;;;6.03;4.22;;;;;;;23.04;31.59;100314.08;1787307;80;25310;-64
2021/04/12 08:44:03;;;;;;;7.78;4.30;;;;;;;23.17;31.50;100322.77;1765768;78;25333;-62
2021/04/12 08:47:11;;;;;;;11.08;4.20;;;;;;;22.89;29.93;100320.77;1793411;79;25000;-62
2021/04/12 08:50:06;;;;;;;5.12;4.17;;;;;;;22.36;31.27;100297.43;1791110;79;25479;-65
2021/04/12 08:52:44;;;;;;;8.63;3.60;;;;;;;22.40;31.92;100304.33;1790248;79;25751;-62
2021/04/12 08:55:40;;;;;;;6.05;4.40;;;;;;;22.61;32.23;100304.39;1797304;78;25720;-66
2021/04/12 08:58:29;;;;;;;7.22;3.87;;;;;;;22.48;31.21;100303.95;1794653;78;25465;-62
2021/04/12 09:01:33;;;;;;;9.20;4.70;;;;;;;22.19;31.90;100301.67;1757253;80;25670;-61
2021/04/12 09:04:28;;;;;;;5.58;4.33;;;;;;;21.95;32.79;100298.42;1757771;81;25452;-62
2021/04/12 09:07:06;;;;;;;8.55;5.00;;;;;;;21.89;32.92;100307.44;1758403;81;25977;-63
2021/04/12 09:09:59;;;;;;;9.98;4.95;;;;;;;21.79;33.24;100297.38;1757546;81;25537;-63
2021/04/12 09:13:06;;;;;;;5.58;4.62;;;;;;;21.84;33.18;100303.08;1757811;81;25308;-62
2021/04/12 09:16:29;;;;;;;9.38;4.25;;;;;;;21.69;33.25;100306.36;1758063;81;25610;-64
2021/04/12 09:19:20;;;;;;;5.80;3.90;;;;;;;21.72;33.63;100303.41;1758329;81;25441;-64
2021/04/12 09:22:12;;;;;;;5.78;4.03;;;;;;;21.40;32.83;100299.27;1758424;81;25701;-63
2021/04/12 09:25:09;;;;;;;6.72;4.12;;;;;;;21.17;32.55;100308.33;1744273;80;25356;-65
2021/04/12 09:28:24;;;;;;;6.05;3.87;;;;;;;20.82;32.31;100313.14;1728213;82;25561;-63
2021/04/12 09:31:29;;;;;;;8.25;4.22;;;;;;;20.40;33.02;100312.86;1728183;83;25874;-63
2021/04/12 09:34:07;;;;;;;8.60;4.10;;;;;;;20.12;33.54;100308.59;1728206;83;25266;-63
2021/04/12 09:37:18;;;;;;;5.15;4.00;;;;;;;19.95;33.73;100308.61;1728436;83;25759;-62
2021/04/12 09:40:10;;;;;;;4.50;3.42;;;;;;;19.85;33.89;100309.23;1788766;80;25613;-64
2021/04/12 09:43:23;;;;;;;4.85;3.58;;;;;;;19.78;33.44;100303.65;1799707;77;25302;-64
2021/04/12 09:46:19;;;;;;;4.33;3.35;;;;;;;19.65;33.73;100297.58;1784374;80;25313;-64
2021/04/12 09:49:16;;;;;;;3.58;2.70;;;;;;;19.68;34.56;100293.28;1726676;81;26296;-65
2021/04/12 09:52:20;;;;;;;5.42;3.58;;;;;;;20.01;33.68;100293.18;1726624;83;26674;-64
2021/04/12 09:55:05;;;;;;;5.92;3.62;;;;;;;20.14;33.12;100293.94;1726561;83;25829;-63
2021/04/12 09:58:07;;;;;;;5.17;3.30;;;;;;;20.19;32.63;100283.77;1727525;81;25636;-67
2021/04/12 10:01:05;;;;;;;5.70;3.02;;;;;;;20.24;32.08;100306.19;1735917;81;25797;-66
2021/04/12 10:03:56;;;;;;;;;;;;;;;20.17;32.63;100289.63;1692072;83;25590;-65
2021/04/12 10:06:55;;;;;;;7.60;3.40;;;;;;;20.20;32.32;100290.27;1716422;83;27016;-65
2021/04/12 10:10:00;;;;;;;7.60;4.05;;;;;;;20.33;33.58;100279.23;1702091;83;25903;-66
2021/04/12 10:12:46;;;;;;;6.87;3.67;;;;;;;20.83;33.09;100286.44;1718355;83;25380;-66
2021/04/12 10:15:42;;;;;;;5.03;3.50;;;;;;;21.04;32.84;100276.19;1720748;81;25372;-65
2021/04/12 10:18:35;;;;;;;4.65;3.70;;;;;;;21.35;33.28;100280.38;1753749;81;25374;-65
2021/04/12 10:21:25;;;;;;;6.97;4.37;;;;;;;21.92;33.24;100293.69;1751261;81;26588;-65
2021/04/12 10:24:23;;;;;;;6.92;3.80;;;;;;;22.15;30.89;100282.95;1886522;76;25296;-66
2021/04/12 10:27:07;;;;;;;13.85;4.30;;;;;;;21.93;31.45;100276.56;1851251;77;25672;-65
2021/04/12 10:30:10;;;;;;;4.08;3.67;;;;;;;21.93;31.38;100282.08;1847046;76;25443;-65
2021/04/12 10:33:00;;;;;;;4.62;3.60;;;;;;;21.89;30.45;100282.06;1789830;80;25525;-66
2021/04/12 10:35:50;;;;;;;7.28;4.17;;;;;;;21.86;31.53;100283.42;1789804;80;25748;-65
2021/04/12 10:38:33;;;;;;;4.70;4.05;;;;;;;21.96;30.64;100285.44;1769808;80;25509;-65
2021/04/12 10:41:36;;;;;;;6.12;4.05;;;;;;;21.99;31.15;100288.20;1801678;77;25976;-65
2021/04/12 10:44:42;;;;;;;10.65;3.75;;;;;;;22.06;31.18;100277.03;1815478;77;25863;-64
2021/04/12 10:47:27;;;;;;;4.67;3.50;;;;;;;22.14;30.49;100289.06;1846564;77;25578;-67
2021/04/12 10:50:15;;;;;;;5.90;3.55;;;;;;;22.09;30.19;100281.17;1814254;78;25968;-65
2021/04/12 10:53:03;;;;;;;5.17;3.58;;;;;;;22.09;29.92;100277.04;1803525;77;25651;-65
2021/04/12 10:55:49;;;;;;;;;;;;;;;22.18;29.92;100284.34;1810451;78;25584;-65
2021/04/12 10:58:28;;;;;;;4.70;3.20;;;;;;;22.10;29.97;100277.81;1812960;78;25666;-66
2021/04/12 11:01:06;;;;;;;6.35;3.60;;;;;;;22.03;30.10;100270.31;1805663;78;25455;-64
2021/04/12 11:03:50;;;;;;;4.97;3.35;;;;;;;22.07;30.67;100270.36;1803241;78;25904;-68
2021/04/12 11:06:46;;;;;;;6.15;3.60;;;;;;;22.20;30.51;100277.06;1799427;78;25651;-65
2021/04/12 11:09:34;;;;;;;5.87;3.95;;;;;;;22.12;30.08;100276.27;1797328;78;25528;-67
2021/04/12 11:12:25;;;;;;;5.17;3.72;;;;;;;21.76;29.80;100287.70;1813847;78;25311;-66
2021/04/12 11:15:34;;;;;;;4.28;3.85;;;;;;;21.39;30.41;100298.27;1777854;79;25309;-66
2021/04/12 11:18:26;;;;;;;8.93;4.37;;;;;;;21.05;30.73;100281.31;1812644;78;28063;-66
2021/04/12 11:21:23;;;;;;;6.08;4.10;;;;;;;20.76;31.28;100284.41;1718186;83;25903;-66
2021/04/12 11:24:28;;;;;;;11.43;4.67;;;;;;;20.55;32.10;100299.27;1887761;76;25488;-67
2021/04/12 11:27:44;;;;;;;6.85;3.95;;;;;;;20.32;32.17;100298.25;1847754;75;25523;-67
2021/04/12 11:30:43;;;;;;;7.45;3.98;;;;;;;20.12;32.56;100283.88;1866191;76;25754;-66
2021/04/12 11:33:54;;;;;;;6.72;4.37;;;;;;;20.07;32.91;100280.09;1858895;75;26283;-66
2021/04/12 11:36:50;;;;;;;5.90;3.95;;;;;;;20.09;33.26;100275.61;1862836;76;25615;-66
2021/04/12 11:39:24;;;;;;;6.70;4.08;;;;;;;20.04;33.06;100282.80;1781097;80;25639;-66
2021/04/12 11:41:56;;;;;;;5.35;4.50;;;;;;;19.91;33.54;100270.70;1781008;80;25579;-66
2021/04/12 11:44:38;;;;;;;11.03;4.15;;;;;;;19.86;33.54;100291.61;1777307;80;25995;-62
2021/04/12 11:47:34;;;;;;;7.22;4.37;;;;;;;19.77;33.80;100279.54;1770312;80;25616;-63
2021/04/12 11:50:07;;;;;;;4.97;4.45;;;;;;;19.80;34.36;100278.58;1775658;79;25601;-63
2021/04/12 11:52:50;;;;;;;6.37;3.90;;;;;;;19.62;34.40;100276.36;1789176;79;25648;-62
2021/04/12 11:55:40;;;;;;;5.97;4.05;;;;;;;19.50;34.72;100278.74;1796283;79;25376;-62
2021/04/12 11:58:39;;;;;;;6.40;3.80;;;;;;;19.43;34.38;100282.77;1849319;75;25385;-62
2021/04/12 12:01:43;;;;;;;9.35;4.22;;;;;;;19.30;34.85;100269.04;1800844;77;25709;-62
2021/04/12 12:04:26;;;;;;;6.92;3.70;;;;;;;19.22;34.90;100270.31;1777596;78;25845;-62
2021/04/12 12:07:10;;;;;;;8.53;3.98;;;;;;;19.20;35.20;100273.98;1817466;77;25394;-62
2021/04/12 12:10:20;;;;;;;6.25;3.58;;;;;;;19.24;35.36;100264.46;1816788;79;25333;-62
2021/04/12 12:13:12;;;;;;;6.53;4.08;;;;;;;19.24;35.67;100265.83;1817622;79;25395;-62
2021/04/12 12:16:08;;;;;;;5.58;4.33;;;;;;;19.22;35.35;100282.65;1817714;79;25288;-62
2021/04/12 12:18:46;;;;;;;4.80;3.83;;;;;;;19.06;35.36;100277.09;1816028;79;25849;-62
2021/04/12 12:21:28;;;;;;;5.62;4.17;;;;;;;18.94;35.30;100283.55;1813973;79;25300;-62
2021/04/12 12:24:12;;;;;;;5.35;3.47;;;;;;;18.76;35.65;100282.64;1817653;78;25323;-61
2021/04/12 12:27:05;;;;;;;6.12;3.75;;;;;;;18.60;35.67;100284.10;1817372;79;25272;-62
2021/04/12 12:29:44;;;;;;;5.70;3.98;;;;;;;18.47;35.95;100295.81;1806684;79;25543;-63
2021/04/12 12:32:19;;;;;;;8.43;3.98;;;;;;;18.37;36.09;100283.27;1817264;79;26632;-63
2021/04/12 12:35:28;;;;;;;10.25;3.67;;;;;;;18.34;36.46;100283.44;1817490;79;25411;-63
2021/04/12 12:38:13;;;;;;;6.28;4.35;;;;;;;18.34;36.48;100283.44;1817709;78;25422;-64
2021/04/12 12:40:51;;;;;;;4.65;3.72;;;;;;;18.31;36.56;100278.67;1816160;79;25313;-61
2021/04/12 12:43:23;;;;;;;10.15;3.90;;;;;;;18.23;36.73;100272.84;1817425;79;25351;-62
2021/04/12 12:45:52;;;;;;;10.03;4.00;;;;;;;18.16;36.72;100287.17;1816700;79;25698;-61
2021/04/12 12:48:26;;;;;;;6.60;4.08;;;;;;;18.12;36.83;100287.69;1817533;79;25474;-63
2021/04/12 12:51:10;;;;;;;9.48;3.67;;;;;;;18.05;36.87;100281.49;1817302;79;25481;-62
2021/04/12 12:53:42;;;;;;;5.60;3.22;;;;;;;18.00;37.05;100277.67;1817684;79;25575;-62
2021/04/12 12:56:25;;;;;;;4.67;3.35;;;;;;;17.97;37.23;100277.60;1817350;78;25261;-62
2021/04/12 12:59:06;;;;;;;7.00;3.92;;;;;;;17.95;37.41;100275.81;1817315;79;26219;-62
2021/04/12 13:01:38;;;;;;;5.72;3.47;;;;;;;17.95;37.19;100281.28;1814924;78;25430;-63
2021/04/12 13:04:25;;;;;;;6.83;3.77;;;;;;;17.91;37.24;100282.55;1787159;80;25482;-62
2021/04/12 13:07:01;;;;;;;8.50;3.65;;;;;;;17.90;37.43;100278.25;1786924;80;25439;-62
2021/04/12 13:09:36;;;;;;;6.62;3.30;;;;;;;17.88;37.59;100280.55;1781874;80;25247;-61
2021/04/12 13:12:16;;;;;;;6.25;4.10;;;;;;;17.87;37.53;100272.12;1786571;80;25687;-62
2021/04/12 13:14:49;;;;;;;3.98;3.40;;;;;;;17.86;37.99;100276.80;1786614;80;25450;-62
2021/04/12 13:17:40;;;;;;;6.85;3.30;;;;;;;17.87;37.95;100268.80;1786742;80;25251;-65
2021/04/12 13:20:24;;;;;;;5.90;3.83;;;;;;;17.89;38.34;100273.36;1786563;80;25429;-63
2021/04/12 13:23:01;;;;;;;5.50;3.58;;;;;;;17.82;38.36;100274.52;1786796;80;25483;-64
2021/04/12 13:25:41;;;;;;;5.87;3.90;;;;;;;17.77;38.49;100278.91;1786868;80;25821;-61
2021/04/12 13:28:29;;;;;;;6.87;3.72;;;;;;;17.71;38.67;100283.09;1793754;78;25459;-65
2021/04/12 13:31:05;;;;;;;6.78;3.55;;;;;;;17.63;38.53;100276.66;1819163;78;25478;-63
2021/04/12 13:33:41;;;;;;;8.03;3.42;;;;;;;17.59;38.66;100285.92;1818979;78;25413;-66
2021/04/12 13:36:15;;;;;;;8.90;3.85;;;;;;;17.52;38.61;100277.80;1818865;78;25466;-62
2021/04/12 13:38:44;;;;;;;9.50;3.92;;;;;;;17.47;38.87;100279.44;1818914;78;26602;-62
2021/04/12 13:41:24;;;;;;;6.77;4.03;;;;;;;17.43;38.86;100275.81;1814056;78;25269;-64
2021/04/12 13:44:07;;;;;;;7.75;3.70;;;;;;;17.41;39.36;100275.38;1803611;78;25502;-65
2021/04/12 13:46:54;;;;;;;5.40;3.58;;;;;;;17.39;39.12;100280.42;1818439;78;25513;-64
2021/04/12 13:49:29;;;;;;;7.60;3.33;;;;;;;17.34;39.33;100285.58;1818186;78;25406;-62
2021/04/12 13:52:11;;;;;;;8.35;3.60;;;;;;;17.30;39.45;100275.73;1817704;78;25766;-70
2021/04/12 13:54:59;;;;;;;8.88;3.75;;;;;;;17.34;39.41;100286.94;1848756;76;25434;-68
2021/04/12 13:57:37;;;;;;;4.40;3.15;;;;;;;17.25;39.81;100276.00;1818709;78;25591;-64
2021/04/12 14:00:24;;;;;;;5.58;3.62;;;;;;;17.23;39.52;100275.53;1807713;78;25870;-63
2021/04/12 14:02:57;;;;;;;6.40;3.67;;;;;;;17.20;39.60;100276.23;1819133;78;25694;-64
2021/04/12 14:05:31;;;;;;;7.12;3.95;;;;;;;17.20;39.93;100278.97;1819467;78;25481;-62
2021/04/12 14:08:15;;;;;;;9.23;3.70;;;;;;;17.18;39.99;100279.35;1819483;78;25492;-63
2021/04/12 14:11:04;;;;;;;7.22;3.67;;;;;;;17.20;39.83;100281.70;1819670;78;25438;-63
2021/04/12 14:13:39;;;;;;;7.25;3.80;;;;;;;17.21;39.72;100283.30;1819586;78;25695;-63
2021/04/12 14:16:21;;;;;;;8.03;4.17;;;;;;;17.21;39.70;100279.20;1819524;78;25481;-64
2021/04/12 14:19:05;;;;;;;8.08;4.33;;;;;;;17.23;39.76;100287.28;1819316;78;25657;-63
2021/04/12 14:21:41;;;;;;;8.43;4.33;;;;;;;17.28;39.74;100284.83;1819431;78;25446;-63
2021/04/12 14:24:29;;;;;;;10.75;4.25;;;;;;;17.28;39.72;100286.20;1819636;78;25487;-62
2021/04/12 14:27:14;;;;;;;13.25;3.87;;;;;;;17.30;39.93;100282.56;1819240;78;25783;-63
2021/04/12 14:30:09;;;;;;;5.95;4.03;;;;;;;17.30;39.75;100283.93;1819404;78;25413;-63
2021/04/12 14:32:48;;;;;;;7.05;3.67;;;;;;;17.27;39.87;100286.00;1787970;78;25471;-63
2021/04/12 14:35:26;;;;;;;7.65;4.53;;;;;;;17.23;39.83;100282.37;1819581;78;25457;-63
2021/04/12 14:38:07;;;;;;;5.20;3.83;;;;;;;17.21;39.98;100284.67;1819499;78;25410;-63
2021/04/12 14:40:36;;;;;;;8.48;3.95;;;;;;;17.19;39.97;100283.66;1819619;78;25755;-63
2021/04/12 14:43:22;;;;;;;8.13;4.50;;;;;;;17.15;40.05;100284.94;1819378;78;25481;-62
2021/04/12 14:45:53;;;;;;;7.20;4.08;;;;;;;17.15;40.18;100286.89;1819558;78;25443;-63
2021/04/12 14:48:37;;;;;;;8.08;4.37;;;;;;;17.12;40.17;100278.80;1819235;78;25492;-63
2021/04/12 14:51:08;;;;;;;7.65;3.90;;;;;;;17.13;40.34;100279.62;1819514;78;25288;-63
2021/04/12 14:53:46;;;;;;;5.75;3.83;;;;;;;17.12;40.39;100281.54;1819520;78;26602;-62
2021/04/12 14:56:23;;;;;;;8.43;3.83;;;;;;;17.13;40.59;100287.23;1816955;78;25464;-62
2021/04/12 14:58:58;;;;;;;6.58;4.10;;;;;;;17.12;40.43;100288.95;1819510;78;25422;-63
2021/04/12 15:01:47;;;;;;;7.00;4.47;;;;;;;17.09;40.70;100283.61;1819567;78;25429;-63
2021/04/12 15:04:30;;;;;;;7.55;4.40;;;;;;;17.09;40.62;100286.92;1819181;78;25309;-63
2021/04/12 15:07:11;;;;;;;9.53;3.67;;;;;;;17.07;40.66;100291.37;1819024;78;26332;-63
2021/04/12 15:10:03;;;;;;;11.48;4.20;;;;;;;17.03;40.51;100291.87;1818878;78;25437;-63
2021/04/12 15:12:32;;;;;;;8.00;4.40;;;;;;;17.01;40.64;100294.72;1818670;78;25435;-63
2021/04/12 15:15:08;;;;;;;5.20;3.90;;;;;;;16.99;40.69;100301.34;1819067;78;25253;-63
2021/04/12 15:17:43;;;;;;;7.00;4.20;;;;;;;16.96;40.71;100303.98;1819025;78;25284;-63
2021/04/12 15:20:48;;;;;;;12.37;4.45;;;;;;;16.94;40.82;100302.16;1818868;78;25683;-63
2021/04/12 15:23:23;;;;;;;7.65;4.17;;;;;;;16.93;40.83;100298.64;1818980;78;25506;-64
2021/04/12 15:25:55;;;;;;;8.98;5.08;;;;;;;16.93;40.80;100300.59;1818019;78;26221;-64
2021/04/12 15:28:29;;;;;;;8.48;4.65;;;;;;;16.94;40.88;100304.34;1818696;78;25503;-62
2021/04/12 15:34:06;;;;;;;9.90;4.40;;;;;;;16.97;40.81;100312.39;1849338;76;25311;-64
2021/04/12 15:36:52;;;;;;;9.25;4.80;;;;;;;16.86;40.67;100318.17;1819746;78;25243;-63
2021/04/12 15:39:33;;;;;;;7.30;4.90;;;;;;;16.81;40.87;100315.88;1787861;78;25760;-62
2021/04/12 15:42:11;;;;;;;8.85;4.30;;;;;;;16.83;41.10;100318.84;1814289;78;25627;-62
2021/04/12 15:44:49;;;;;;;10.05;5.50;;;;;;;16.84;41.47;100321.25;1788980;78;25276;-62
2021/04/12 15:47:25;;;;;;;10.63;5.62;;;;;;;16.85;41.50;100324.19;1792694;78;25444;-62
2021/04/12 15:50:02;;;;;;;11.10;8.83;;;;;;;16.88;41.71;100328.17;1817666;78;25588;-63
2021/04/12 15:52:42;;;;;;;13.75;8.65;;;;;;;16.88;42.67;100333.05;1819178;78;25772;-63
2021/04/12 15:55:29;;;;;;;16.65;9.65;;;;;;;16.85;42.55;100332.96;1818353;78;25412;-66
2021/04/12 15:58:17;;;;;;;16.37;11.53;;;;;;;16.82;42.89;100333.05;1806880;78;25427;-65
2021/04/12 16:00:47;;;;;;;15.10;11.25;;;;;;;16.77;43.82;100327.29;1787368;80;25477;-66
2021/04/12 16:03:24;;;;;;;18.37;12.45;;;;;;;16.74;43.64;100333.45;1787140;80;25341;-65
2021/04/12 16:06:05;;;;;;;22.65;12.03;;;;;;;16.68;43.85;100339.50;1787472;80;26767;-64
2021/04/12 16:08:40;;;;;;;21.42;14.07;;;;;;;16.61;44.27;100339.52;1787249;80;25442;-65
2021/04/12 16:11:24;;;;;;;23.65;16.15;;;;;;;16.53;44.54;100343.77;1787100;80;25294;-65
2021/04/12 16:14:23;;;;;;;20.43;14.10;;;;;;;16.46;44.91;100352.56;1784854;80;25227;-64
2021/04/12 16:16:54;;;;;;;21.93;15.93;;;;;;;16.38;45.27;100351.58;1787696;80;25482;-65
2021/04/12 16:19:37;;;;;;;26.02;17.57;;;;;;;16.28;45.65;100358.89;1787147;80;25691;-65
2021/04/12 16:22:15;;;;;;;26.25;17.55;;;;;;;16.20;46.34;100360.61;1786978;80;25393;-64
2021/04/12 16:24:50;;;;;;;23.40;18.10;;;;;;;16.09;46.80;100363.61;1787056;80;25241;-63
2021/04/12 16:27:42;;;;;;;28.62;18.20;;;;;;;16.00;47.35;100370.53;1761829;80;25261;-63
2021/04/12 16:30:26;;;;;;;30.72;18.35;;;;;;;15.90;47.59;100369.64;1787362;80;25249;-63
2021/04/12 16:33:11;;;;;;;30.85;20.72;;;;;;;15.83;48.33;100373.52;1786571;80;26377;-63
2021/04/12 16:35:47;;;;;;;28.07;19.82;;;;;;;15.73;48.47;100376.67;1802376;77;25573;-62
2021/04/12 16:38:19;;;;;;;35.17;23.18;;;;;;;15.65;48.84;100386.00;1804661;78;25625;-62
2021/04/12 16:41:09;;;;;;;31.07;23.70;;;;;;;15.55;49.95;100387.03;1819220;78;25514;-63
2021/04/12 16:43:58;;;;;;;36.63;24.87;;;;;;;15.47;49.72;100396.31;1819299;78;25510;-62
2021/04/12 16:46:39;;;;;;;33.42;24.85;;;;;;;15.37;50.02;100404.93;1819021;78;25845;-63
2021/04/12 16:49:38;;;;;;;32.10;24.98;;;;;;;15.28;50.22;100411.06;1818858;78;25451;-64
2021/04/12 16:52:32;;;;;;;39.38;26.02;;;;;;;15.19;50.82;100414.42;1811371;78;34891;-62
2021/04/12 16:55:10;;;;;;;42.58;30.25;;;;;;;15.11;51.32;100424.30;1807650;78;25280;-62
2021/04/12 16:57:48;;;;;;;44.00;29.60;;;;;;;15.01;51.67;100428.80;1799740;78;25241;-63
2021/04/12 17:00:26;;;;;;;43.90;30.35;;;;;;;14.90;52.08;100431.16;1814429;78;25849;-61
2021/04/12 17:03:03;;;;;;;44.58;29.27;;;;;;;14.79;52.73;100433.48;1793404;78;25554;-63
2021/04/12 17:05:47;;;;;;;46.92;31.27;;;;;;;14.69;53.03;100442.88;1798198;78;25325;-62
2021/04/12 17:08:19;;;;;;;50.63;31.05;;;;;;;14.59;54.34;100440.52;1801388;77;25631;-62
2021/04/12 17:10:57;;;;;;;47.83;32.48;;;;;;;14.49;54.14;100449.06;1807536;77;25669;-62
2021/04/12 17:13:36;;;;;;;45.80;32.83;;;;;;;14.39;54.26;100445.61;1796701;78;25688;-61
2021/04/12 17:16:42;;;;;;;51.30;31.55;;;;;;;14.31;54.75;100450.55;1803143;78;25601;-63
2021/04/12 17:19:13;;;;;;;48.75;31.85;;;;;;;14.23;55.48;100452.75;1785872;80;25269;-61
2021/04/12 17:22:03;;;;;;;50.48;33.55;;;;;;;14.13;55.87;100458.57;1790364;78;25591;-61
2021/04/12 17:24:34;;;;;;;54.13;33.20;;;;;;;14.03;56.63;100463.84;1809254;77;25459;-63
2021/04/12 17:27:26;;;;;;;52.03;36.23;;;;;;;13.91;57.36;100468.62;1850295;77;25702;-61
2021/04/12 17:30:15;;;;;;;54.95;34.18;;;;;;;13.83;57.20;100472.17;1797443;77;25713;-59
2021/04/12 17:32:56;;;;;;;48.73;31.27;;;;;;;13.75;56.99;100485.23;1789240;80;25812;-63
2021/04/12 17:35:37;;;;;;;53.13;32.25;;;;;;;13.71;57.37;100495.95;1769236;80;25450;-62
2021/04/12 17:38:27;;;;;;;46.85;31.35;;;;;;;13.65;57.59;100494.52;1787485;78;25570;-63
2021/04/12 17:41:09;;;;;;;;;;;;;;;13.59;57.58;100495.27;1716187;81;25791;-62
2021/04/12 17:43:40;;;;;;;49.25;28.55;;;;;;;13.56;58.03;100500.56;1709110;84;25513;-61
2021/04/12 17:46:24;;;;;;;39.67;24.60;;;;;;;13.53;58.30;100512.86;1689358;84;25504;-62
2021/04/12 17:49:05;;;;;;;42.20;23.57;;;;;;;13.50;58.08;100516.78;1689539;84;25523;-63
2021/04/12 17:51:43;;;;;;;41.77;22.45;;;;;;;13.41;58.21;100517.59;1662227;84;25493;-63
2021/04/12 17:54:27;;;;;;;35.20;21.42;;;;;;;13.39;58.41;100520.41;1849402;76;35005;-61
2021/04/12 17:56:58;;;;;;;35.23;21.48;;;;;;;13.24;58.21;100526.53;1782040;79;25357;-63
2021/04/12 17:59:44;;;;;;;32.03;19.02;;;;;;;13.19;58.46;100530.77;1766002;81;25978;-63
2021/04/12 18:02:28;;;;;;;31.55;19.23;;;;;;;13.14;58.39;100538.30;1765669;81;25317;-62
2021/04/12 18:05:03;;;;;;;32.78;19.98;;;;;;;13.05;58.59;100541.80;1766022;81;25469;-62
2021/04/12 18:07:36;;;;;;;30.97;18.32;;;;;;;12.96;59.15;100543.73;1765921;81;25323;-63
2021/04/12 18:10:31;;;;;;;29.80;17.95;;;;;;;12.86;59.48;100552.98;1765816;81;25533;-63
2021/04/12 18:13:09;;;;;;;26.02;17.37;;;;;;;12.74;59.11;100565.02;1766216;81;26742;-62
2021/04/12 18:15:41;;;;;;;27.98;18.10;;;;;;;12.59;59.23;100564.91;1765680;81;25388;-62
2021/04/12 18:18:33;;;;;;;29.05;17.52;;;;;;;12.50;59.34;100572.23;1777497;79;25550;-63
2021/04/12 18:21:24;;;;;;;25.05;16.87;;;;;;;12.41;59.53;100568.14;1789672;80;25472;-62
2021/04/12 18:23:54;;;;;;;29.92;17.15;;;;;;;12.28;59.73;100566.34;1789477;80;25322;-62
2021/04/12 18:26:26;;;;;;;28.10;17.73;;;;;;;12.17;59.97;100570.42;1763596;80;25707;-63
2021/04/12 18:29:02;;;;;;;25.00;17.55;;;;;;;12.07;60.00;100579.63;1789588;80;25305;-62
2021/04/12 18:31:52;;;;;;;23.80;14.98;;;;;;;12.01;60.40;100584.95;1789491;80;25374;-63
2021/04/12 18:34:24;;;;;;;22.65;15.15;;;;;;;11.92;60.06;100596.55;1778971;80;25310;-62